Airfield :
LOGIN :

Register | Disclaimer

   EN    FR    IT 

 










Legend :    VFR   Marginal VFR   IFR   Intensive IFR   Very Intensive IFR
Visi :
Ceiling :
>= 8 km
>= 3000ft
5 to 8 km
1000 to 3000 ft
1500m to 5 km
500 to 1000 ft
800 to 1500m
200 to 500 ft
< 800m
< 200 ft
Symbols :   Thunderstorms  Fog  Heavy snow  Heavy precipitations  Wind > 20 kt
SIGMETs :     Misc.  Thunderstorms  Icing  Turbulence  Mountain Waves  Volcanic Ashes






- Airport Elevation : 357 ft
- IATA code : TUF


LFOT - Tours

CURRENT METAR :
  • 271730Z AUTO 32009KT 280V340 9999 SCT042 08/02 Q1012 NOSIG

EXPIRED METARs :
  • 271700Z AUTO 32012KT 9999 FEW043 09/02 Q1011 NOSIG
  • 271630Z AUTO 31011KT 270V330 9999 BKN039 BKN047 09/02 Q1010 NOSIG
  • 271600Z AUTO 31017G30KT 280V350 9999 SCT034 SCT042 10/02 Q1009 BECMG 28006KT
  • 271530Z AUTO 31015G26KT 9999 BKN033 BKN046 10/03 Q1009 BECMG 28006KT
  • 271500Z AUTO 30020G33KT 9999 BKN030 BKN039 10/04 Q1007 BECMG 28006KT

TAF TAF LFOT
Valid from the 27 at 18:00 until the 28 at 18:00 UTC


271700Z 2718/2818 30010KT CAVOK
BECMG 2723/2801 16003KT
TEMPO 2801/2806 4000 MIFG
PROB30
TEMPO 2804/2806 0600 FG VV///
BECMG 2807/2810 20013KT -RA BKN012
TEMPO 2810/2817 2500 -RADZ OVC004



MET'MAP, your aeronautical weather chart ! - Copyright ORBIFLY December 2007 - Disclaimer

ORBIFLY MET'MAP TEAM :

Programming & Development : Alexandra Zaïnal
Concept & original design : Baudouin d'Aumeries
Assistance for programming : Marc-Olivier Méhu
Technical & hardware support : Manuel Goepfert

Contact : metmap@orbifly.com




SOURCES & CREDITS :

   NOAA